This is the latest recevied weather packets stored in our database for station/object WQ5C-13. If no packets are shown the sender has not sent any weather packets the latest 10 day(s).
| Time | Temp. | Humidity | Pressure | Rain* | Wind** | Luminosity | Snow |
|---|---|---|---|---|---|---|---|
| 1778029215 | 26.11° C | 72% | 1006.4 hPa | 0 mm | - | - | - |
| 1778026215 | 26.67° C | 69% | 1006.1 hPa | 0 mm | - | - | - |
| 1778025015 | 26.67° C | 68% | 1005.9 hPa | 0 mm | - | - | - |
| 1778024415 | 26.67° C | 69% | 1005.9 hPa | 0 mm | - | - | - |
| 1778022615 | 26.67° C | 67% | 1005.7 hPa | 0 mm | - | - | - |
| 1778011215 | 26.11° C | 71% | 1007.8 hPa | 0 mm | - | - | - |
| 1778010615 | 25.56° C | 75% | 1007.9 hPa | 0 mm | - | - | - |
| 1778008215 | 25° C | 75% | 1008.4 hPa | 0 mm | - | - | - |
| 1778004615 | 23.89° C | 79% | 1009 hPa | 0 mm | - | - | - |
| 1778004015 | 23.89° C | 80% | 1009 hPa | 0 mm | - | - | - |
| 1778002815 | 23.89° C | 81% | 1009.1 hPa | 0 mm | - | - | - |
| 1778002235 | 23.33° C | 83% | 1009.2 hPa | 0 mm | - | - | - |
| 1778001015 | 22.78° C | 84% | 1009.3 hPa | 0 mm | - | - | - |
| 1777998035 | 21.67° C | 88% | 1009.2 hPa | 0 mm | - | - | - |
| 1777993815 | 20.56° C | 92% | 1009.1 hPa | 0 mm | - | - | - |
| 1777991415 | 20° C | 93% | 1009.1 hPa | 0 mm | - | - | - |
| 1777988455 | 20° C | 93% | 1008.8 hPa | 0 mm | - | - | - |
| 1777987835 | 20° C | 93% | 1008.7 hPa | 0 mm | - | - | - |
| 1777987215 | 20° C | 93% | 1008.7 hPa | 0 mm | - | - | - |
| 1777984215 | 20° C | 92% | 1008.2 hPa | 0 mm | - | - | - |
| 1777982415 | 20° C | 92% | 1008 hPa | 0 mm | - | - | - |
| 1777976415 | 20° C | 92% | 1008 hPa | 0 mm | - | - | - |
| 1777975215 | 20° C | 92% | 1008.1 hPa | 0 mm | - | - | - |
| 1777972215 | 19.44° C | 93% | 1008.3 hPa | 0 mm | - | - | - |
| 1777971616 | 19.44° C | 92% | 1008.2 hPa | 0 mm | - | - | - |
* Rain latest hour (hover to see other rain measurements)
** Current wind speed in m/s (hover to see current wind gust speed)